sensor_id;sensor_type;location;lat;lon;timestamp;P1;durP1;ratioP1;P2;durP2;ratioP2
9661;SDS011;24982;52.344;12.990;2023-04-25T00:00:07;2.22;;;1.95;;
9661;SDS011;24982;52.344;12.990;2023-04-25T00:03:14;4.45;;;2.30;;
9661;SDS011;24982;52.344;12.990;2023-04-25T00:06:18;2.42;;;2.22;;
9661;SDS011;24982;52.344;12.990;2023-04-25T00:09:20;3.10;;;2.20;;
9661;SDS011;24982;52.344;12.990;2023-04-25T00:12:22;4.13;;;2.08;;
9661;SDS011;24982;52.344;12.990;2023-04-25T00:15:24;4.00;;;2.40;;
9661;SDS011;24982;52.344;12.990;2023-04-25T00:18:27;5.78;;;2.63;;
9661;SDS011;24982;52.344;12.990;2023-04-25T00:21:30;2.83;;;2.30;;
9661;SDS011;24982;52.344;12.990;2023-04-25T00:24:32;3.35;;;2.42;;
9661;SDS011;24982;52.344;12.990;2023-04-25T00:27:34;3.72;;;2.38;;
9661;SDS011;24982;52.344;12.990;2023-04-25T00:30:37;3.70;;;2.28;;
9661;SDS011;24982;52.344;12.990;2023-04-25T00:33:41;4.18;;;2.35;;
9661;SDS011;24982;52.344;12.990;2023-04-25T00:36:43;3.63;;;2.50;;
9661;SDS011;24982;52.344;12.990;2023-04-25T00:39:45;4.40;;;2.33;;
9661;SDS011;24982;52.344;12.990;2023-04-25T00:42:47;6.32;;;2.42;;
9661;SDS011;24982;52.344;12.990;2023-04-25T00:45:50;4.18;;;2.55;;
9661;SDS011;24982;52.344;12.990;2023-04-25T00:48:54;4.47;;;2.22;;
9661;SDS011;24982;52.344;12.990;2023-04-25T00:51:56;3.97;;;2.45;;
9661;SDS011;24982;52.344;12.990;2023-04-25T00:54:58;5.28;;;2.30;;
9661;SDS011;24982;52.344;12.990;2023-04-25T00:58:01;4.43;;;2.30;;
9661;SDS011;24982;52.344;12.990;2023-04-25T01:01:04;2.40;;;2.20;;
9661;SDS011;24982;52.344;12.990;2023-04-25T01:04:08;3.22;;;2.25;;
9661;SDS011;24982;52.344;12.990;2023-04-25T01:07:10;4.32;;;2.30;;
9661;SDS011;24982;52.344;12.990;2023-04-25T01:10:12;4.40;;;2.22;;
9661;SDS011;24982;52.344;12.990;2023-04-25T01:13:15;4.28;;;2.10;;
9661;SDS011;24982;52.344;12.990;2023-04-25T01:16:17;3.25;;;2.40;;
9661;SDS011;24982;52.344;12.990;2023-04-25T01:19:21;6.90;;;2.60;;
9661;SDS011;24982;52.344;12.990;2023-04-25T01:22:26;7.18;;;2.45;;
9661;SDS011;24982;52.344;12.990;2023-04-25T01:25:28;3.58;;;2.42;;
9661;SDS011;24982;52.344;12.990;2023-04-25T01:28:31;5.80;;;2.58;;
9661;SDS011;24982;52.344;12.990;2023-04-25T01:31:35;3.65;;;2.50;;
9661;SDS011;24982;52.344;12.990;2023-04-25T01:34:39;4.30;;;2.60;;
9661;SDS011;24982;52.344;12.990;2023-04-25T01:37:43;4.22;;;2.75;;
9661;SDS011;24982;52.344;12.990;2023-04-25T01:40:46;4.00;;;2.63;;
9661;SDS011;24982;52.344;12.990;2023-04-25T01:43:52;6.40;;;3.10;;
9661;SDS011;24982;52.344;12.990;2023-04-25T01:46:55;2.88;;;2.63;;
9661;SDS011;24982;52.344;12.990;2023-04-25T01:49:57;7.20;;;3.20;;
9661;SDS011;24982;52.344;12.990;2023-04-25T01:53:00;4.78;;;2.92;;
9661;SDS011;24982;52.344;12.990;2023-04-25T01:56:03;3.38;;;2.85;;
9661;SDS011;24982;52.344;12.990;2023-04-25T01:59:08;4.95;;;2.80;;
9661;SDS011;24982;52.344;12.990;2023-04-25T02:02:49;7.00;;;2.58;;
9661;SDS011;24982;52.344;12.990;2023-04-25T02:05:59;5.95;;;2.95;;
9661;SDS011;24982;52.344;12.990;2023-04-25T02:09:04;4.60;;;2.90;;
9661;SDS011;24982;52.344;12.990;2023-04-25T02:12:07;5.32;;;3.00;;
9661;SDS011;24982;52.344;12.990;2023-04-25T02:15:39;6.22;;;3.08;;
9661;SDS011;24982;52.344;12.990;2023-04-25T02:18:49;5.57;;;3.15;;
9661;SDS011;24982;52.344;12.990;2023-04-25T02:21:53;6.25;;;3.00;;
9661;SDS011;24982;52.344;12.990;2023-04-25T02:24:56;6.68;;;3.28;;
9661;SDS011;24982;52.344;12.990;2023-04-25T02:27:59;6.72;;;3.55;;
9661;SDS011;24982;52.344;12.990;2023-04-25T02:31:01;6.32;;;3.20;;
9661;SDS011;24982;52.344;12.990;2023-04-25T02:34:04;7.38;;;3.40;;
9661;SDS011;24982;52.344;12.990;2023-04-25T02:37:09;5.43;;;3.05;;
9661;SDS011;24982;52.344;12.990;2023-04-25T02:40:12;6.57;;;3.15;;
9661;SDS011;24982;52.344;12.990;2023-04-25T02:43:14;4.30;;;3.13;;
9661;SDS011;24982;52.344;12.990;2023-04-25T02:46:16;4.32;;;3.10;;
9661;SDS011;24982;52.344;12.990;2023-04-25T02:49:20;4.45;;;3.10;;
9661;SDS011;24982;52.344;12.990;2023-04-25T02:52:22;8.75;;;3.58;;
9661;SDS011;24982;52.344;12.990;2023-04-25T02:55:34;5.78;;;3.50;;
9661;SDS011;24982;52.344;12.990;2023-04-25T02:58:37;5.68;;;3.10;;
9661;SDS011;24982;52.344;12.990;2023-04-25T03:01:39;7.57;;;3.65;;
9661;SDS011;24982;52.344;12.990;2023-04-25T03:04:42;7.28;;;3.53;;
9661;SDS011;24982;52.344;12.990;2023-04-25T03:07:44;6.30;;;3.20;;
9661;SDS011;24982;52.344;12.990;2023-04-25T03:10:47;7.28;;;3.80;;
9661;SDS011;24982;52.344;12.990;2023-04-25T03:13:50;4.30;;;3.28;;
9661;SDS011;24982;52.344;12.990;2023-04-25T03:16:53;10.30;;;3.80;;
9661;SDS011;24982;52.344;12.990;2023-04-25T03:19:55;6.43;;;3.65;;
9661;SDS011;24982;52.344;12.990;2023-04-25T03:22:58;5.55;;;3.90;;
9661;SDS011;24982;52.344;12.990;2023-04-25T03:26:03;9.13;;;3.80;;
9661;SDS011;24982;52.344;12.990;2023-04-25T03:29:05;7.05;;;3.75;;
9661;SDS011;24982;52.344;12.990;2023-04-25T03:32:08;5.95;;;3.60;;
9661;SDS011;24982;52.344;12.990;2023-04-25T03:35:11;5.60;;;3.85;;
9661;SDS011;24982;52.344;12.990;2023-04-25T03:38:13;7.35;;;4.07;;
9661;SDS011;24982;52.344;12.990;2023-04-25T03:41:16;5.68;;;3.50;;
9661;SDS011;24982;52.344;12.990;2023-04-25T03:44:22;6.00;;;3.58;;
9661;SDS011;24982;52.344;12.990;2023-04-25T03:47:25;9.65;;;3.95;;
9661;SDS011;24982;52.344;12.990;2023-04-25T03:50:28;7.72;;;3.80;;
9661;SDS011;24982;52.344;12.990;2023-04-25T03:53:30;7.22;;;4.10;;
9661;SDS011;24982;52.344;12.990;2023-04-25T03:56:52;7.22;;;4.28;;
9661;SDS011;24982;52.344;12.990;2023-04-25T03:59:57;5.72;;;3.95;;
9661;SDS011;24982;52.344;12.990;2023-04-25T04:03:01;9.82;;;4.38;;
9661;SDS011;24982;52.344;12.990;2023-04-25T04:06:03;9.20;;;4.43;;
9661;SDS011;24982;52.344;12.990;2023-04-25T04:09:09;9.32;;;4.15;;
9661;SDS011;24982;52.344;12.990;2023-04-25T04:12:16;9.60;;;4.05;;
9661;SDS011;24982;52.344;12.990;2023-04-25T04:15:18;7.60;;;3.83;;
9661;SDS011;24982;52.344;12.990;2023-04-25T04:18:22;7.38;;;3.97;;
9661;SDS011;24982;52.344;12.990;2023-04-25T04:21:24;6.38;;;4.18;;
9661;SDS011;24982;52.344;12.990;2023-04-25T04:24:28;7.57;;;4.00;;
9661;SDS011;24982;52.344;12.990;2023-04-25T04:27:38;7.18;;;4.03;;
9661;SDS011;24982;52.344;12.990;2023-04-25T04:30:58;9.70;;;4.22;;
9661;SDS011;24982;52.344;12.990;2023-04-25T04:34:01;7.10;;;3.90;;
9661;SDS011;24982;52.344;12.990;2023-04-25T04:37:04;7.88;;;4.10;;
9661;SDS011;24982;52.344;12.990;2023-04-25T04:40:07;7.88;;;4.20;;
9661;SDS011;24982;52.344;12.990;2023-04-25T04:43:38;7.82;;;4.43;;
9661;SDS011;24982;52.344;12.990;2023-04-25T04:47:02;7.55;;;3.90;;
9661;SDS011;24982;52.344;12.990;2023-04-25T04:50:26;8.82;;;4.25;;
9661;SDS011;24982;52.344;12.990;2023-04-25T04:53:51;8.23;;;4.72;;
9661;SDS011;24982;52.344;12.990;2023-04-25T04:57:16;9.13;;;4.47;;
9661;SDS011;24982;52.344;12.990;2023-04-25T05:00:36;8.13;;;4.35;;
9661;SDS011;24982;52.344;12.990;2023-04-25T05:03:53;12.23;;;4.18;;
9661;SDS011;24982;52.344;12.990;2023-04-25T05:07:20;8.07;;;3.85;;
9661;SDS011;24982;52.344;12.990;2023-04-25T05:10:43;6.85;;;4.18;;
9661;SDS011;24982;52.344;12.990;2023-04-25T05:14:21;12.35;;;4.18;;
9661;SDS011;24982;52.344;12.990;2023-04-25T05:17:47;12.18;;;4.45;;
9661;SDS011;24982;52.344;12.990;2023-04-25T05:21:01;8.60;;;4.35;;
9661;SDS011;24982;52.344;12.990;2023-04-25T05:24:36;10.68;;;4.85;;
9661;SDS011;24982;52.344;12.990;2023-04-25T05:27:58;6.57;;;4.60;;
9661;SDS011;24982;52.344;12.990;2023-04-25T05:31:12;6.15;;;3.97;;
9661;SDS011;24982;52.344;12.990;2023-04-25T05:34:42;11.45;;;4.60;;
9661;SDS011;24982;52.344;12.990;2023-04-25T05:37:53;8.32;;;4.18;;
9661;SDS011;24982;52.344;12.990;2023-04-25T05:41:07;10.68;;;4.70;;
9661;SDS011;24982;52.344;12.990;2023-04-25T05:44:16;9.95;;;4.43;;
9661;SDS011;24982;52.344;12.990;2023-04-25T05:47:23;12.32;;;4.93;;
9661;SDS011;24982;52.344;12.990;2023-04-25T05:50:44;9.98;;;4.72;;
9661;SDS011;24982;52.344;12.990;2023-04-25T05:54:07;8.32;;;4.90;;
9661;SDS011;24982;52.344;12.990;2023-04-25T05:57:17;8.80;;;4.38;;
9661;SDS011;24982;52.344;12.990;2023-04-25T06:00:21;8.57;;;4.35;;
9661;SDS011;24982;52.344;12.990;2023-04-25T06:03:24;9.88;;;4.60;;
9661;SDS011;24982;52.344;12.990;2023-04-25T06:06:27;11.05;;;5.18;;
9661;SDS011;24982;52.344;12.990;2023-04-25T06:09:32;7.43;;;4.70;;
9661;SDS011;24982;52.344;12.990;2023-04-25T06:12:35;8.65;;;4.90;;
9661;SDS011;24982;52.344;12.990;2023-04-25T06:15:38;14.57;;;4.85;;
9661;SDS011;24982;52.344;12.990;2023-04-25T06:18:40;7.85;;;4.47;;
9661;SDS011;24982;52.344;12.990;2023-04-25T06:21:44;7.63;;;4.45;;
9661;SDS011;24982;52.344;12.990;2023-04-25T06:24:46;8.82;;;4.40;;
9661;SDS011;24982;52.344;12.990;2023-04-25T06:27:48;9.52;;;4.38;;
9661;SDS011;24982;52.344;12.990;2023-04-25T06:30:51;6.95;;;4.03;;
9661;SDS011;24982;52.344;12.990;2023-04-25T06:33:54;5.13;;;3.90;;
9661;SDS011;24982;52.344;12.990;2023-04-25T06:36:59;5.47;;;3.55;;
9661;SDS011;24982;52.344;12.990;2023-04-25T06:40:01;7.22;;;3.42;;
9661;SDS011;24982;52.344;12.990;2023-04-25T06:43:04;8.55;;;3.95;;
9661;SDS011;24982;52.344;12.990;2023-04-25T06:46:17;6.22;;;3.80;;
9661;SDS011;24982;52.344;12.990;2023-04-25T06:49:21;6.35;;;3.90;;
9661;SDS011;24982;52.344;12.990;2023-04-25T06:52:24;6.30;;;3.53;;
9661;SDS011;24982;52.344;12.990;2023-04-25T06:55:27;5.57;;;3.42;;
9661;SDS011;24982;52.344;12.990;2023-04-25T06:58:53;5.97;;;3.17;;
9661;SDS011;24982;52.344;12.990;2023-04-25T07:02:01;8.13;;;3.35;;
9661;SDS011;24982;52.344;12.990;2023-04-25T07:05:03;10.07;;;3.30;;
9661;SDS011;24982;52.344;12.990;2023-04-25T07:08:08;10.20;;;3.38;;
9661;SDS011;24982;52.344;12.990;2023-04-25T07:11:11;12.88;;;3.85;;
9661;SDS011;24982;52.344;12.990;2023-04-25T07:14:14;8.07;;;3.28;;
9661;SDS011;24982;52.344;12.990;2023-04-25T07:17:16;12.85;;;3.88;;
9661;SDS011;24982;52.344;12.990;2023-04-25T07:20:19;12.15;;;3.60;;
9661;SDS011;24982;52.344;12.990;2023-04-25T07:23:22;9.55;;;3.97;;
9661;SDS011;24982;52.344;12.990;2023-04-25T07:26:25;11.85;;;4.20;;
9661;SDS011;24982;52.344;12.990;2023-04-25T07:30:06;13.20;;;4.30;;
9661;SDS011;24982;52.344;12.990;2023-04-25T07:33:08;10.85;;;3.80;;
9661;SDS011;24982;52.344;12.990;2023-04-25T07:36:10;13.73;;;3.97;;
9661;SDS011;24982;52.344;12.990;2023-04-25T07:39:14;13.07;;;4.20;;
9661;SDS011;24982;52.344;12.990;2023-04-25T07:42:18;16.95;;;4.55;;
9661;SDS011;24982;52.344;12.990;2023-04-25T07:45:22;12.38;;;4.50;;
9661;SDS011;24982;52.344;12.990;2023-04-25T07:48:24;15.93;;;4.57;;
9661;SDS011;24982;52.344;12.990;2023-04-25T07:51:27;15.65;;;4.50;;
9661;SDS011;24982;52.344;12.990;2023-04-25T07:54:34;15.60;;;4.13;;
9661;SDS011;24982;52.344;12.990;2023-04-25T07:57:44;11.82;;;3.80;;
9661;SDS011;24982;52.344;12.990;2023-04-25T08:00:47;12.23;;;3.67;;
9661;SDS011;24982;52.344;12.990;2023-04-25T08:04:10;17.73;;;4.28;;
9661;SDS011;24982;52.344;12.990;2023-04-25T08:07:26;18.73;;;4.20;;
9661;SDS011;24982;52.344;12.990;2023-04-25T08:10:33;14.27;;;4.07;;
9661;SDS011;24982;52.344;12.990;2023-04-25T08:13:35;18.55;;;4.60;;
9661;SDS011;24982;52.344;12.990;2023-04-25T08:16:37;16.60;;;4.10;;
9661;SDS011;24982;52.344;12.990;2023-04-25T08:19:39;14.15;;;3.60;;
9661;SDS011;24982;52.344;12.990;2023-04-25T08:22:49;17.80;;;4.13;;
9661;SDS011;24982;52.344;12.990;2023-04-25T08:26:12;19.23;;;4.47;;
9661;SDS011;24982;52.344;12.990;2023-04-25T08:29:16;16.67;;;4.00;;
9661;SDS011;24982;52.344;12.990;2023-04-25T08:32:18;14.52;;;3.72;;
9661;SDS011;24982;52.344;12.990;2023-04-25T08:35:37;12.85;;;3.97;;
9661;SDS011;24982;52.344;12.990;2023-04-25T08:38:39;14.13;;;3.65;;
9661;SDS011;24982;52.344;12.990;2023-04-25T08:41:45;14.20;;;3.20;;
9661;SDS011;24982;52.344;12.990;2023-04-25T08:44:48;14.82;;;3.78;;
9661;SDS011;24982;52.344;12.990;2023-04-25T08:47:50;12.95;;;3.67;;
9661;SDS011;24982;52.344;12.990;2023-04-25T08:50:55;11.45;;;3.17;;
9661;SDS011;24982;52.344;12.990;2023-04-25T08:54:01;10.70;;;3.20;;
9661;SDS011;24982;52.344;12.990;2023-04-25T08:57:11;13.75;;;3.83;;
9661;SDS011;24982;52.344;12.990;2023-04-25T09:00:16;10.55;;;3.40;;
9661;SDS011;24982;52.344;12.990;2023-04-25T09:03:20;13.90;;;3.63;;
9661;SDS011;24982;52.344;12.990;2023-04-25T09:06:23;11.43;;;3.58;;
9661;SDS011;24982;52.344;12.990;2023-04-25T09:09:26;11.43;;;3.33;;
9661;SDS011;24982;52.344;12.990;2023-04-25T09:12:30;15.02;;;3.88;;
9661;SDS011;24982;52.344;12.990;2023-04-25T09:15:33;13.50;;;3.45;;
9661;SDS011;24982;52.344;12.990;2023-04-25T09:19:20;9.15;;;3.10;;
9661;SDS011;24982;52.344;12.990;2023-04-25T09:22:23;14.43;;;3.58;;
9661;SDS011;24982;52.344;12.990;2023-04-25T09:25:26;10.43;;;3.45;;
9661;SDS011;24982;52.344;12.990;2023-04-25T09:28:36;12.90;;;3.40;;
9661;SDS011;24982;52.344;12.990;2023-04-25T09:31:39;13.93;;;3.80;;
9661;SDS011;24982;52.344;12.990;2023-04-25T09:34:43;16.35;;;3.70;;
9661;SDS011;24982;52.344;12.990;2023-04-25T09:37:48;14.15;;;3.42;;
9661;SDS011;24982;52.344;12.990;2023-04-25T09:41:22;9.95;;;3.63;;
9661;SDS011;24982;52.344;12.990;2023-04-25T09:44:28;7.25;;;2.97;;
9661;SDS011;24982;52.344;12.990;2023-04-25T09:47:31;11.27;;;3.55;;
9661;SDS011;24982;52.344;12.990;2023-04-25T09:50:39;10.98;;;3.40;;
9661;SDS011;24982;52.344;12.990;2023-04-25T09:53:45;7.75;;;2.63;;
9661;SDS011;24982;52.344;12.990;2023-04-25T09:57:10;10.65;;;3.13;;
9661;SDS011;24982;52.344;12.990;2023-04-25T10:00:15;10.52;;;3.08;;
9661;SDS011;24982;52.344;12.990;2023-04-25T10:03:18;8.10;;;2.95;;
9661;SDS011;24982;52.344;12.990;2023-04-25T10:06:35;8.73;;;2.72;;
9661;SDS011;24982;52.344;12.990;2023-04-25T10:09:39;7.95;;;2.95;;
9661;SDS011;24982;52.344;12.990;2023-04-25T10:12:42;7.18;;;2.40;;
9661;SDS011;24982;52.344;12.990;2023-04-25T10:15:46;8.63;;;2.70;;
9661;SDS011;24982;52.344;12.990;2023-04-25T10:18:49;6.85;;;3.17;;
9661;SDS011;24982;52.344;12.990;2023-04-25T10:21:52;10.43;;;2.88;;
9661;SDS011;24982;52.344;12.990;2023-04-25T10:24:58;9.98;;;2.60;;
9661;SDS011;24982;52.344;12.990;2023-04-25T10:28:00;9.52;;;2.90;;
9661;SDS011;24982;52.344;12.990;2023-04-25T10:31:07;12.07;;;2.70;;
9661;SDS011;24982;52.344;12.990;2023-04-25T10:34:09;6.85;;;2.42;;
9661;SDS011;24982;52.344;12.990;2023-04-25T10:37:11;8.70;;;2.30;;
9661;SDS011;24982;52.344;12.990;2023-04-25T10:40:14;5.70;;;2.40;;
9661;SDS011;24982;52.344;12.990;2023-04-25T10:43:39;6.53;;;2.30;;
9661;SDS011;24982;52.344;12.990;2023-04-25T10:46:43;10.25;;;2.72;;
9661;SDS011;24982;52.344;12.990;2023-04-25T10:49:46;9.05;;;2.25;;
9661;SDS011;24982;52.344;12.990;2023-04-25T10:52:52;8.07;;;2.40;;
9661;SDS011;24982;52.344;12.990;2023-04-25T10:55:55;8.70;;;2.33;;
9661;SDS011;24982;52.344;12.990;2023-04-25T10:59:06;8.00;;;2.50;;
9661;SDS011;24982;52.344;12.990;2023-04-25T11:02:12;6.22;;;2.45;;
9661;SDS011;24982;52.344;12.990;2023-04-25T11:05:19;8.93;;;2.80;;
9661;SDS011;24982;52.344;12.990;2023-04-25T11:08:36;9.57;;;2.65;;
9661;SDS011;24982;52.344;12.990;2023-04-25T11:11:53;9.57;;;2.80;;
9661;SDS011;24982;52.344;12.990;2023-04-25T11:14:58;10.50;;;2.72;;
9661;SDS011;24982;52.344;12.990;2023-04-25T11:18:02;9.02;;;2.63;;
9661;SDS011;24982;52.344;12.990;2023-04-25T11:21:04;9.93;;;3.05;;
9661;SDS011;24982;52.344;12.990;2023-04-25T11:24:07;11.27;;;2.63;;
9661;SDS011;24982;52.344;12.990;2023-04-25T11:27:09;11.55;;;3.10;;
9661;SDS011;24982;52.344;12.990;2023-04-25T11:30:12;7.72;;;2.47;;
9661;SDS011;24982;52.344;12.990;2023-04-25T11:33:17;4.43;;;2.17;;
9661;SDS011;24982;52.344;12.990;2023-04-25T11:36:20;9.43;;;2.47;;
9661;SDS011;24982;52.344;12.990;2023-04-25T11:39:24;8.75;;;2.70;;
9661;SDS011;24982;52.344;12.990;2023-04-25T11:42:26;6.82;;;2.20;;
9661;SDS011;24982;52.344;12.990;2023-04-25T11:45:28;9.80;;;2.40;;
9661;SDS011;24982;52.344;12.990;2023-04-25T11:48:37;7.97;;;2.60;;
9661;SDS011;24982;52.344;12.990;2023-04-25T11:51:40;5.55;;;2.55;;
9661;SDS011;24982;52.344;12.990;2023-04-25T11:54:43;7.40;;;1.95;;
9661;SDS011;24982;52.344;12.990;2023-04-25T11:57:47;5.28;;;1.75;;
9661;SDS011;24982;52.344;12.990;2023-04-25T12:00:50;4.82;;;1.77;;
9661;SDS011;24982;52.344;12.990;2023-04-25T12:03:53;3.10;;;1.60;;
9661;SDS011;24982;52.344;12.990;2023-04-25T12:06:55;4.15;;;1.95;;
9661;SDS011;24982;52.344;12.990;2023-04-25T12:09:57;4.72;;;1.95;;
9661;SDS011;24982;52.344;12.990;2023-04-25T12:12:59;3.72;;;1.90;;
9661;SDS011;24982;52.344;12.990;2023-04-25T12:16:01;5.18;;;1.80;;
9661;SDS011;24982;52.344;12.990;2023-04-25T12:19:04;4.93;;;1.92;;
9661;SDS011;24982;52.344;12.990;2023-04-25T12:22:18;5.45;;;1.92;;
9661;SDS011;24982;52.344;12.990;2023-04-25T12:25:34;4.80;;;2.30;;
9661;SDS011;24982;52.344;12.990;2023-04-25T12:28:38;3.97;;;1.88;;
9661;SDS011;24982;52.344;12.990;2023-04-25T12:31:40;5.85;;;1.98;;
9661;SDS011;24982;52.344;12.990;2023-04-25T12:34:43;6.40;;;2.40;;
9661;SDS011;24982;52.344;12.990;2023-04-25T12:37:46;7.03;;;2.40;;
9661;SDS011;24982;52.344;12.990;2023-04-25T12:40:48;10.40;;;2.78;;
9661;SDS011;24982;52.344;12.990;2023-04-25T12:43:50;8.43;;;2.63;;
9661;SDS011;24982;52.344;12.990;2023-04-25T12:46:52;5.32;;;1.90;;
9661;SDS011;24982;52.344;12.990;2023-04-25T12:49:56;9.15;;;2.42;;
9661;SDS011;24982;52.344;12.990;2023-04-25T12:52:57;9.93;;;2.60;;
9661;SDS011;24982;52.344;12.990;2023-04-25T12:56:00;8.57;;;2.58;;
9661;SDS011;24982;52.344;12.990;2023-04-25T12:59:02;8.75;;;2.50;;
9661;SDS011;24982;52.344;12.990;2023-04-25T13:02:05;5.18;;;2.22;;
9661;SDS011;24982;52.344;12.990;2023-04-25T13:05:08;7.35;;;2.25;;
9661;SDS011;24982;52.344;12.990;2023-04-25T13:08:11;10.30;;;2.55;;
9661;SDS011;24982;52.344;12.990;2023-04-25T13:11:13;4.88;;;2.22;;
9661;SDS011;24982;52.344;12.990;2023-04-25T13:14:15;9.40;;;2.78;;
9661;SDS011;24982;52.344;12.990;2023-04-25T13:17:17;8.48;;;2.53;;
9661;SDS011;24982;52.344;12.990;2023-04-25T13:20:21;4.82;;;2.10;;
9661;SDS011;24982;52.344;12.990;2023-04-25T13:23:24;6.63;;;2.60;;
9661;SDS011;24982;52.344;12.990;2023-04-25T13:26:27;8.32;;;2.28;;
9661;SDS011;24982;52.344;12.990;2023-04-25T13:29:29;5.60;;;2.47;;
9661;SDS011;24982;52.344;12.990;2023-04-25T13:32:31;8.57;;;2.42;;
9661;SDS011;24982;52.344;12.990;2023-04-25T13:35:35;8.85;;;2.47;;
9661;SDS011;24982;52.344;12.990;2023-04-25T13:38:39;9.00;;;2.50;;
9661;SDS011;24982;52.344;12.990;2023-04-25T13:41:43;7.47;;;2.58;;
9661;SDS011;24982;52.344;12.990;2023-04-25T13:44:45;7.85;;;2.50;;
9661;SDS011;24982;52.344;12.990;2023-04-25T13:47:47;6.90;;;2.60;;
9661;SDS011;24982;52.344;12.990;2023-04-25T13:50:51;6.32;;;2.40;;
9661;SDS011;24982;52.344;12.990;2023-04-25T13:53:53;7.43;;;3.15;;
9661;SDS011;24982;52.344;12.990;2023-04-25T13:56:55;6.38;;;2.38;;
9661;SDS011;24982;52.344;12.990;2023-04-25T13:59:58;8.20;;;2.40;;
9661;SDS011;24982;52.344;12.990;2023-04-25T14:03:06;6.57;;;2.63;;
9661;SDS011;24982;52.344;12.990;2023-04-25T14:06:10;5.70;;;2.50;;
9661;SDS011;24982;52.344;12.990;2023-04-25T14:09:12;7.28;;;2.55;;
9661;SDS011;24982;52.344;12.990;2023-04-25T14:12:15;7.03;;;2.40;;
9661;SDS011;24982;52.344;12.990;2023-04-25T14:15:17;10.27;;;2.60;;
9661;SDS011;24982;52.344;12.990;2023-04-25T14:18:20;9.00;;;2.40;;
9661;SDS011;24982;52.344;12.990;2023-04-25T14:21:23;7.95;;;2.50;;
9661;SDS011;24982;52.344;12.990;2023-04-25T14:24:27;5.95;;;2.50;;
9661;SDS011;24982;52.344;12.990;2023-04-25T14:27:28;7.88;;;2.70;;
9661;SDS011;24982;52.344;12.990;2023-04-25T14:30:30;3.83;;;1.85;;
9661;SDS011;24982;52.344;12.990;2023-04-25T14:33:33;9.98;;;2.90;;
9661;SDS011;24982;52.344;12.990;2023-04-25T14:36:36;6.40;;;2.58;;
9661;SDS011;24982;52.344;12.990;2023-04-25T14:39:38;6.93;;;2.42;;
9661;SDS011;24982;52.344;12.990;2023-04-25T14:42:41;4.63;;;2.35;;
9661;SDS011;24982;52.344;12.990;2023-04-25T14:45:42;4.10;;;2.00;;
9661;SDS011;24982;52.344;12.990;2023-04-25T14:48:44;8.48;;;2.38;;
9661;SDS011;24982;52.344;12.990;2023-04-25T14:51:48;4.80;;;2.30;;
9661;SDS011;24982;52.344;12.990;2023-04-25T14:54:51;5.55;;;2.40;;
9661;SDS011;24982;52.344;12.990;2023-04-25T14:57:53;4.97;;;2.10;;
9661;SDS011;24982;52.344;12.990;2023-04-25T15:00:55;6.22;;;2.20;;
9661;SDS011;24982;52.344;12.990;2023-04-25T15:03:57;4.10;;;2.00;;
9661;SDS011;24982;52.344;12.990;2023-04-25T15:07:01;4.68;;;1.90;;
9661;SDS011;24982;52.344;12.990;2023-04-25T15:10:04;4.60;;;2.33;;
9661;SDS011;24982;52.344;12.990;2023-04-25T15:13:11;7.53;;;2.65;;
9661;SDS011;24982;52.344;12.990;2023-04-25T15:16:13;6.30;;;1.98;;
9661;SDS011;24982;52.344;12.990;2023-04-25T15:19:15;4.38;;;1.83;;
9661;SDS011;24982;52.344;12.990;2023-04-25T15:22:18;6.30;;;2.10;;
9661;SDS011;24982;52.344;12.990;2023-04-25T15:25:20;3.88;;;1.90;;
9661;SDS011;24982;52.344;12.990;2023-04-25T15:28:22;6.63;;;1.98;;
9661;SDS011;24982;52.344;12.990;2023-04-25T15:31:24;4.13;;;1.75;;
9661;SDS011;24982;52.344;12.990;2023-04-25T15:34:26;5.68;;;1.90;;
9661;SDS011;24982;52.344;12.990;2023-04-25T15:37:30;5.68;;;1.83;;
9661;SDS011;24982;52.344;12.990;2023-04-25T15:40:32;6.93;;;1.70;;
9661;SDS011;24982;52.344;12.990;2023-04-25T15:43:34;5.63;;;2.00;;
9661;SDS011;24982;52.344;12.990;2023-04-25T15:46:38;8.38;;;1.90;;
9661;SDS011;24982;52.344;12.990;2023-04-25T15:49:40;5.80;;;2.00;;
9661;SDS011;24982;52.344;12.990;2023-04-25T15:52:43;5.65;;;1.98;;
9661;SDS011;24982;52.344;12.990;2023-04-25T15:55:46;6.97;;;2.00;;
9661;SDS011;24982;52.344;12.990;2023-04-25T15:58:48;6.18;;;1.77;;
9661;SDS011;24982;52.344;12.990;2023-04-25T16:01:50;7.30;;;2.05;;
9661;SDS011;24982;52.344;12.990;2023-04-25T16:04:52;3.45;;;1.60;;
9661;SDS011;24982;52.344;12.990;2023-04-25T16:07:56;4.28;;;1.83;;
9661;SDS011;24982;52.344;12.990;2023-04-25T16:10:59;6.55;;;1.90;;
9661;SDS011;24982;52.344;12.990;2023-04-25T16:14:02;5.28;;;1.55;;
9661;SDS011;24982;52.344;12.990;2023-04-25T16:17:04;3.17;;;1.35;;
9661;SDS011;24982;52.344;12.990;2023-04-25T16:20:06;3.58;;;1.67;;
9661;SDS011;24982;52.344;12.990;2023-04-25T16:23:12;4.60;;;1.58;;
9661;SDS011;24982;52.344;12.990;2023-04-25T16:26:14;4.65;;;1.70;;
9661;SDS011;24982;52.344;12.990;2023-04-25T16:29:16;6.05;;;1.60;;
9661;SDS011;24982;52.344;12.990;2023-04-25T16:32:18;2.78;;;1.42;;
9661;SDS011;24982;52.344;12.990;2023-04-25T16:35:20;5.03;;;1.65;;
9661;SDS011;24982;52.344;12.990;2023-04-25T16:38:25;5.05;;;1.67;;
9661;SDS011;24982;52.344;12.990;2023-04-25T16:41:27;5.40;;;2.28;;
9661;SDS011;24982;52.344;12.990;2023-04-25T16:44:29;5.25;;;1.90;;
9661;SDS011;24982;52.344;12.990;2023-04-25T16:47:31;3.47;;;1.52;;
9661;SDS011;24982;52.344;12.990;2023-04-25T16:50:33;5.65;;;1.67;;
9661;SDS011;24982;52.344;12.990;2023-04-25T16:53:36;6.07;;;1.90;;
9661;SDS011;24982;52.344;12.990;2023-04-25T16:56:38;3.08;;;1.60;;
9661;SDS011;24982;52.344;12.990;2023-04-25T16:59:40;4.80;;;1.70;;
9661;SDS011;24982;52.344;12.990;2023-04-25T17:02:42;4.43;;;1.50;;
9661;SDS011;24982;52.344;12.990;2023-04-25T17:05:44;4.57;;;2.00;;
9661;SDS011;24982;52.344;12.990;2023-04-25T17:08:48;7.82;;;2.00;;
9661;SDS011;24982;52.344;12.990;2023-04-25T17:11:50;2.85;;;1.90;;
9661;SDS011;24982;52.344;12.990;2023-04-25T17:14:52;3.47;;;1.60;;
9661;SDS011;24982;52.344;12.990;2023-04-25T17:17:54;4.88;;;1.50;;
9661;SDS011;24982;52.344;12.990;2023-04-25T17:20:56;4.32;;;1.50;;
9661;SDS011;24982;52.344;12.990;2023-04-25T17:23:59;2.80;;;1.40;;
9661;SDS011;24982;52.344;12.990;2023-04-25T17:27:05;4.28;;;1.60;;
9661;SDS011;24982;52.344;12.990;2023-04-25T17:30:07;4.40;;;1.40;;
9661;SDS011;24982;52.344;12.990;2023-04-25T17:33:10;4.20;;;1.50;;
9661;SDS011;24982;52.344;12.990;2023-04-25T17:36:12;2.47;;;1.20;;
9661;SDS011;24982;52.344;12.990;2023-04-25T17:39:15;4.28;;;1.38;;
9661;SDS011;24982;52.344;12.990;2023-04-25T17:42:17;3.15;;;1.35;;
9661;SDS011;24982;52.344;12.990;2023-04-25T17:45:19;2.88;;;1.40;;
9661;SDS011;24982;52.344;12.990;2023-04-25T17:48:21;3.95;;;1.50;;
9661;SDS011;24982;52.344;12.990;2023-04-25T17:51:24;4.13;;;1.45;;
9661;SDS011;24982;52.344;12.990;2023-04-25T17:54:27;6.50;;;2.50;;
9661;SDS011;24982;52.344;12.990;2023-04-25T17:57:29;3.30;;;1.77;;
9661;SDS011;24982;52.344;12.990;2023-04-25T18:00:31;5.95;;;1.60;;
9661;SDS011;24982;52.344;12.990;2023-04-25T18:03:33;3.83;;;1.90;;
9661;SDS011;24982;52.344;12.990;2023-04-25T18:06:37;4.88;;;1.80;;
9661;SDS011;24982;52.344;12.990;2023-04-25T18:09:40;4.00;;;2.20;;
9661;SDS011;24982;52.344;12.990;2023-04-25T18:12:42;5.78;;;3.30;;
9661;SDS011;24982;52.344;12.990;2023-04-25T18:15:44;2.85;;;1.48;;
9661;SDS011;24982;52.344;12.990;2023-04-25T18:18:46;5.78;;;3.15;;
9661;SDS011;24982;52.344;12.990;2023-04-25T18:21:52;4.32;;;1.30;;
9661;SDS011;24982;52.344;12.990;2023-04-25T18:24:56;3.10;;;1.40;;
9661;SDS011;24982;52.344;12.990;2023-04-25T18:28:00;4.43;;;1.63;;
9661;SDS011;24982;52.344;12.990;2023-04-25T18:31:02;6.40;;;1.73;;
9661;SDS011;24982;52.344;12.990;2023-04-25T18:34:04;4.72;;;1.98;;